createdAt,value
2023-07-27T00:01:51.989Z,17.89
2023-07-27T00:04:19.540Z,17.95
2023-07-27T00:06:47.962Z,17.95
2023-07-27T00:09:14.538Z,17.91
2023-07-27T00:11:40.959Z,17.92
2023-07-27T00:14:07.764Z,17.90
2023-07-27T00:16:34.416Z,17.94
2023-07-27T00:19:01.076Z,17.89
2023-07-27T00:21:27.562Z,17.88
2023-07-27T00:23:54.247Z,17.97
2023-07-27T00:26:20.732Z,17.94
2023-07-27T00:28:47.155Z,18.01
2023-07-27T00:31:13.671Z,18.00
2023-07-27T00:33:40.222Z,17.96
2023-07-27T00:36:06.664Z,17.96
2023-07-27T00:38:33.201Z,18.00
2023-07-27T00:40:59.713Z,18.00
2023-07-27T00:43:26.338Z,17.94
2023-07-27T00:45:52.986Z,17.96
2023-07-27T00:48:20.019Z,17.91
2023-07-27T00:50:48.106Z,17.92
2023-07-27T00:53:15.819Z,17.83
2023-07-27T00:55:43.025Z,17.76
2023-07-27T00:58:09.883Z,17.71
2023-07-27T01:00:36.327Z,17.70
2023-07-27T01:03:04.978Z,17.63
2023-07-27T01:05:32.097Z,17.60
2023-07-27T01:07:58.607Z,17.58
2023-07-27T01:10:41.534Z,17.54
2023-07-27T01:13:19.460Z,17.44
2023-07-27T01:15:52.721Z,17.43
2023-07-27T01:18:41.256Z,17.13
2023-07-27T01:21:40.156Z,17.38
2023-07-27T01:24:27.976Z,17.32
2023-07-27T01:27:12.545Z,17.24
2023-07-27T01:29:59.876Z,17.26
2023-07-27T01:32:30.321Z,17.22
2023-07-27T01:35:00.968Z,16.87
2023-07-27T01:37:30.488Z,17.20
2023-07-27T01:39:59.382Z,17.17
2023-07-27T01:42:26.347Z,17.17
2023-07-27T01:44:54.652Z,17.16
2023-07-27T01:47:23.874Z,17.09
2023-07-27T01:49:51.079Z,17.01
2023-07-27T01:52:20.075Z,17.04
2023-07-27T01:54:48.708Z,17.11
2023-07-27T01:57:16.323Z,17.00
2023-07-27T01:59:42.787Z,17.04
2023-07-27T02:02:09.543Z,16.90
2023-07-27T02:04:36.526Z,17.06
2023-07-27T02:07:03.247Z,17.03
2023-07-27T02:09:29.729Z,16.92
2023-07-27T02:12:01.668Z,16.83
2023-07-27T02:14:36.152Z,16.98
2023-07-27T02:17:09.224Z,16.99
2023-07-27T02:19:39.341Z,16.90
2023-07-27T02:22:09.540Z,16.91
2023-07-27T02:24:36.288Z,16.92
2023-07-27T02:27:02.800Z,16.92
2023-07-27T02:29:29.420Z,16.91
2023-07-27T02:31:55.859Z,16.89
2023-07-27T02:34:22.288Z,16.87
2023-07-27T02:36:48.714Z,16.86
2023-07-27T02:39:15.172Z,16.85
2023-07-27T02:41:41.609Z,16.85
2023-07-27T02:44:08.031Z,16.87
2023-07-27T02:46:34.773Z,16.73
2023-07-27T02:49:01.403Z,16.79
2023-07-27T02:51:27.810Z,16.61
2023-07-27T02:53:54.230Z,16.84
2023-07-27T02:56:20.711Z,16.77
2023-07-27T02:58:47.153Z,16.74
2023-07-27T03:01:13.688Z,16.79
2023-07-27T03:03:40.148Z,16.76
2023-07-27T03:06:06.754Z,16.77
2023-07-27T03:08:33.214Z,16.74
2023-07-27T03:11:03.985Z,16.72
2023-07-27T03:13:31.588Z,16.70
2023-07-27T03:15:58.447Z,16.68
2023-07-27T03:18:24.924Z,16.67
2023-07-27T03:20:51.490Z,16.57
2023-07-27T03:23:17.964Z,16.61
2023-07-27T03:25:44.414Z,16.62
2023-07-27T03:28:11.098Z,16.49
2023-07-27T03:30:39.472Z,16.61
2023-07-27T03:33:06.966Z,16.52
2023-07-27T03:35:34.635Z,16.50
2023-07-27T03:38:01.219Z,16.47
2023-07-27T03:40:27.655Z,16.47
2023-07-27T03:42:54.160Z,16.56
2023-07-27T03:45:20.611Z,16.53
2023-07-27T03:47:47.623Z,16.52
2023-07-27T03:50:14.426Z,16.53
2023-07-27T03:52:41.455Z,16.53
2023-07-27T03:55:08.204Z,16.51
2023-07-27T03:57:35.099Z,16.48
2023-07-27T04:00:01.950Z,16.37
2023-07-27T04:02:29.559Z,16.47
2023-07-27T04:04:56.166Z,16.32
2023-07-27T04:07:22.858Z,16.45
2023-07-27T04:09:49.307Z,16.45
2023-07-27T04:12:15.739Z,16.47
2023-07-27T04:14:42.173Z,16.45
2023-07-27T04:17:08.623Z,16.46
2023-07-27T04:19:35.584Z,16.39
2023-07-27T04:22:02.172Z,16.36
2023-07-27T04:24:28.754Z,16.42
2023-07-27T04:26:55.214Z,16.44
2023-07-27T04:29:21.710Z,16.43
2023-07-27T04:31:48.140Z,16.47
2023-07-27T04:34:14.555Z,16.44
2023-07-27T04:36:41.060Z,16.41
2023-07-27T04:39:07.476Z,16.41
2023-07-27T04:41:33.937Z,16.38
2023-07-27T04:44:00.529Z,16.39
2023-07-27T04:46:27.012Z,16.31
2023-07-27T04:48:53.685Z,16.40
2023-07-27T04:51:20.146Z,16.40
2023-07-27T04:53:46.618Z,16.33
2023-07-27T04:56:13.051Z,16.37
2023-07-27T04:58:39.471Z,16.39
2023-07-27T05:01:05.903Z,16.41
2023-07-27T05:03:32.456Z,16.41
2023-07-27T05:05:58.895Z,16.28
2023-07-27T05:08:25.301Z,16.34
2023-07-27T05:10:51.727Z,16.25
2023-07-27T05:13:18.170Z,16.38
2023-07-27T05:15:45.444Z,16.23
2023-07-27T05:18:11.901Z,16.27
2023-07-27T05:20:38.325Z,16.25
2023-07-27T05:23:04.751Z,16.42
2023-07-27T05:25:31.185Z,16.34
2023-07-27T05:27:57.656Z,16.31
2023-07-27T05:30:24.109Z,16.35
2023-07-27T05:32:50.658Z,16.44
2023-07-27T05:35:17.287Z,16.43
2023-07-27T05:37:47.556Z,16.44
2023-07-27T05:40:17.583Z,16.39
2023-07-27T05:42:44.704Z,16.43
2023-07-27T05:45:11.467Z,16.44
2023-07-27T05:47:38.131Z,16.44
2023-07-27T05:50:05.471Z,16.42
2023-07-27T05:52:31.992Z,16.40
2023-07-27T05:54:59.039Z,16.29
2023-07-27T05:57:25.571Z,16.38
2023-07-27T06:00:00.353Z,16.45
2023-07-27T06:02:32.831Z,16.47
2023-07-27T06:04:59.325Z,16.50
2023-07-27T06:07:27.192Z,16.52
2023-07-27T06:09:54.011Z,16.58
2023-07-27T06:12:20.558Z,16.55
2023-07-27T06:14:47.042Z,16.61
2023-07-27T06:17:16.054Z,16.67
2023-07-27T06:19:42.515Z,16.69
2023-07-27T06:22:09.024Z,16.62
2023-07-27T06:24:35.695Z,16.69
2023-07-27T06:27:02.170Z,16.68
2023-07-27T06:29:28.609Z,16.75
2023-07-27T06:31:55.257Z,16.78
2023-07-27T06:34:21.723Z,16.80
2023-07-27T06:36:48.607Z,16.81
2023-07-27T06:39:15.044Z,16.86
2023-07-27T06:41:41.493Z,17.10
2023-07-27T06:44:07.907Z,17.34
2023-07-27T06:46:35.362Z,17.55
2023-07-27T06:49:02.297Z,17.76
2023-07-27T06:51:29.007Z,17.79
2023-07-27T06:53:55.990Z,18.06
2023-07-27T06:56:22.408Z,18.15
2023-07-27T06:58:48.889Z,18.23
2023-07-27T07:01:15.565Z,18.29
2023-07-27T07:03:42.084Z,18.22
2023-07-27T07:06:10.151Z,18.24
2023-07-27T07:08:36.625Z,18.32
2023-07-27T07:11:03.832Z,18.42
2023-07-27T07:13:30.439Z,18.52
2023-07-27T07:15:56.901Z,18.56
2023-07-27T07:18:23.321Z,18.57
2023-07-27T07:20:52.818Z,18.68
2023-07-27T07:23:33.044Z,18.65
2023-07-27T07:25:59.520Z,18.80
2023-07-27T07:28:25.952Z,18.63
2023-07-27T07:30:52.661Z,18.80
2023-07-27T07:33:19.100Z,18.89
2023-07-27T07:35:45.528Z,18.88
2023-07-27T07:38:11.964Z,18.87
2023-07-27T07:40:38.463Z,18.89
2023-07-27T07:43:04.890Z,18.79
2023-07-27T07:45:34.479Z,18.76
2023-07-27T07:48:01.033Z,19.00
2023-07-27T07:50:27.482Z,19.02
2023-07-27T07:52:56.021Z,18.95
2023-07-27T07:55:22.796Z,19.02
2023-07-27T07:57:49.231Z,19.03
2023-07-27T08:00:16.290Z,18.98
2023-07-27T08:02:42.870Z,18.91
2023-07-27T08:05:10.019Z,19.06
2023-07-27T08:07:36.659Z,19.07
2023-07-27T08:10:03.793Z,19.04
2023-07-27T08:12:30.570Z,19.04
2023-07-27T08:14:57.029Z,19.07
2023-07-27T08:17:23.951Z,19.04
2023-07-27T08:19:50.710Z,18.96
2023-07-27T08:22:17.638Z,18.95
2023-07-27T08:24:44.445Z,18.96
2023-07-27T08:27:11.814Z,19.07
2023-07-27T08:29:38.554Z,19.05
2023-07-27T08:32:05.377Z,19.20
2023-07-27T08:34:31.995Z,19.08
2023-07-27T08:36:58.620Z,19.17
2023-07-27T08:39:25.313Z,19.08
2023-07-27T08:41:52.283Z,19.18
2023-07-27T08:44:19.042Z,19.18
2023-07-27T08:46:46.741Z,19.08
2023-07-27T08:49:16.555Z,19.12
2023-07-27T08:51:44.918Z,18.89
2023-07-27T08:54:12.015Z,19.09
2023-07-27T08:56:38.663Z,19.05
2023-07-27T08:59:05.401Z,18.98
2023-07-27T09:01:32.652Z,18.90
2023-07-27T09:03:59.146Z,18.79
2023-07-27T09:06:46.255Z,18.64
2023-07-27T09:09:13.817Z,18.79
2023-07-27T09:11:41.074Z,18.81
2023-07-27T09:14:07.663Z,18.79
2023-07-27T09:16:35.997Z,18.85
2023-07-27T09:19:04.050Z,18.78
2023-07-27T09:21:40.253Z,18.78
2023-07-27T09:24:10.785Z,18.78
2023-07-27T09:26:44.645Z,18.79
2023-07-27T09:29:13.616Z,18.87
2023-07-27T09:31:49.868Z,18.88
2023-07-27T09:34:17.859Z,18.82
2023-07-27T09:36:44.382Z,18.84
2023-07-27T09:39:11.036Z,18.88
2023-07-27T09:41:38.623Z,18.86
2023-07-27T09:44:05.912Z,18.80
2023-07-27T09:46:33.054Z,18.77
2023-07-27T09:49:00.300Z,18.88
2023-07-27T09:51:28.589Z,18.92
2023-07-27T09:53:56.954Z,18.96
2023-07-27T09:56:23.926Z,18.97
2023-07-27T09:58:50.481Z,19.01
2023-07-27T10:01:18.028Z,19.07
2023-07-27T10:03:46.234Z,19.13
2023-07-27T10:06:17.016Z,19.08
2023-07-27T10:08:45.580Z,19.27
2023-07-27T10:11:12.208Z,19.20
2023-07-27T10:13:42.453Z,19.32
2023-07-27T10:16:12.359Z,19.44
2023-07-27T10:18:44.281Z,19.52
2023-07-27T10:21:27.831Z,19.43
2023-07-27T10:23:59.929Z,19.62
2023-07-27T10:26:41.501Z,19.68
2023-07-27T10:29:25.347Z,19.71
2023-07-27T10:32:01.898Z,19.75
2023-07-27T10:34:34.004Z,19.72
2023-07-27T10:37:04.697Z,19.68
2023-07-27T10:39:35.517Z,19.62
2023-07-27T10:42:01.930Z,19.66
2023-07-27T10:44:41.720Z,19.67
2023-07-27T10:47:09.844Z,19.68
2023-07-27T10:49:41.893Z,19.70
2023-07-27T10:52:09.999Z,19.72
2023-07-27T10:54:41.000Z,19.63
2023-07-27T10:57:09.770Z,19.55
2023-07-27T10:59:44.594Z,19.61
2023-07-27T11:02:22.992Z,19.60
2023-07-27T11:05:00.537Z,19.61
2023-07-27T11:07:34.878Z,19.63
2023-07-27T11:10:08.069Z,19.66
2023-07-27T11:12:52.366Z,19.59
2023-07-27T11:15:24.440Z,19.69
2023-07-27T11:17:52.549Z,19.78
2023-07-27T11:20:24.357Z,19.74
2023-07-27T11:22:52.766Z,19.74
2023-07-27T11:25:19.821Z,19.73
2023-07-27T11:27:54.032Z,19.82
2023-07-27T11:30:22.873Z,19.94
2023-07-27T11:33:16.359Z,20.07
2023-07-27T11:35:47.479Z,20.15
2023-07-27T11:38:14.434Z,20.24
2023-07-27T11:40:45.815Z,20.25
2023-07-27T11:43:12.272Z,20.34
2023-07-27T11:45:39.695Z,20.31
2023-07-27T11:48:06.298Z,20.22
2023-07-27T11:50:38.026Z,20.20
2023-07-27T11:53:09.009Z,20.10
2023-07-27T11:55:37.225Z,20.12
2023-07-27T11:58:11.260Z,20.10
2023-07-27T12:00:38.285Z,20.10
2023-07-27T12:03:16.556Z,20.05
2023-07-27T12:05:52.635Z,20.02
2023-07-27T12:13:59.037Z,20.35
2023-07-27T12:23:42.543Z,20.25
2023-07-27T12:28:42.603Z,20.08
2023-07-27T12:33:39.842Z,20.07
2023-07-27T12:36:06.668Z,20.11
2023-07-27T12:41:02.732Z,20.09
2023-07-27T12:43:29.173Z,20.11
2023-07-27T12:45:55.702Z,20.10
2023-07-27T12:48:22.181Z,20.06
2023-07-27T12:50:48.689Z,20.18
2023-07-27T12:53:15.122Z,20.10
2023-07-27T12:55:41.589Z,20.22
2023-07-27T12:58:08.017Z,20.10
2023-07-27T13:00:34.457Z,20.25
2023-07-27T13:03:01.081Z,20.23
2023-07-27T13:05:27.564Z,20.14
2023-07-27T13:07:54.187Z,20.17
2023-07-27T13:10:20.791Z,20.11
2023-07-27T13:12:47.280Z,20.13
2023-07-27T13:15:13.898Z,20.16
2023-07-27T13:17:41.713Z,20.13
2023-07-27T13:20:09.529Z,20.07
2023-07-27T13:22:39.110Z,19.91
2023-07-27T13:25:06.159Z,20.04
2023-07-27T13:27:32.953Z,20.04
2023-07-27T13:30:04.185Z,19.95
2023-07-27T13:32:31.656Z,20.00
2023-07-27T13:34:59.513Z,19.85
2023-07-27T13:37:25.992Z,19.82
2023-07-27T13:39:52.448Z,19.77
2023-07-27T13:42:19.541Z,19.84
2023-07-27T13:44:46.123Z,19.87
2023-07-27T13:47:12.562Z,19.75
2023-07-27T13:49:39.006Z,19.81
2023-07-27T13:52:05.608Z,19.95
2023-07-27T13:54:32.085Z,20.00
2023-07-27T13:56:58.502Z,20.01
2023-07-27T13:59:25.020Z,20.09
2023-07-27T14:01:51.629Z,20.10
2023-07-27T14:04:18.219Z,20.02
2023-07-27T14:06:45.226Z,20.09
2023-07-27T14:09:11.667Z,20.14
2023-07-27T14:11:38.109Z,20.20
2023-07-27T14:14:05.744Z,20.12
2023-07-27T14:16:32.231Z,20.20
2023-07-27T14:18:58.663Z,20.01
2023-07-27T14:21:25.146Z,20.20
2023-07-27T14:23:51.625Z,20.24
2023-07-27T14:26:21.376Z,20.23
2023-07-27T14:28:51.885Z,20.23
2023-07-27T14:31:19.382Z,20.30
2023-07-27T14:33:47.393Z,20.32
2023-07-27T14:36:13.976Z,20.35
2023-07-27T14:38:40.433Z,20.28
2023-07-27T14:41:08.710Z,20.27
2023-07-27T14:43:36.661Z,20.22
2023-07-27T14:46:03.138Z,20.23
2023-07-27T14:50:59.171Z,20.18
2023-07-27T14:53:25.639Z,20.11
2023-07-27T14:55:52.089Z,20.10
2023-07-27T14:58:18.607Z,20.08
2023-07-27T15:03:20.959Z,20.13
2023-07-27T15:05:49.445Z,20.20
2023-07-27T15:08:16.057Z,20.24
2023-07-27T15:10:45.332Z,20.21
2023-07-27T15:13:11.799Z,20.24
2023-07-27T15:15:38.305Z,20.18
2023-07-27T15:18:06.283Z,20.23
2023-07-27T15:20:40.630Z,20.22
2023-07-27T15:23:07.869Z,20.09
2023-07-27T15:25:34.352Z,20.19
2023-07-27T15:28:05.560Z,20.24
2023-07-27T15:30:33.099Z,20.26
2023-07-27T15:33:00.561Z,20.19
2023-07-27T15:35:27.122Z,20.21
2023-07-27T15:37:53.651Z,20.19
2023-07-27T15:40:20.089Z,20.24
2023-07-27T15:42:46.540Z,20.28
2023-07-27T15:45:12.957Z,20.28
2023-07-27T15:47:39.399Z,20.22
2023-07-27T15:50:06.733Z,20.18
2023-07-27T15:52:33.206Z,20.21
2023-07-27T15:54:59.656Z,20.21
2023-07-27T15:57:26.172Z,20.24
2023-07-27T15:59:53.607Z,20.28
2023-07-27T16:02:20.031Z,20.28
2023-07-27T16:04:46.463Z,20.16
2023-07-27T16:07:12.921Z,20.27
2023-07-27T16:09:39.340Z,20.27
2023-07-27T16:12:06.107Z,20.35
2023-07-27T16:14:34.374Z,20.35
2023-07-27T16:17:01.068Z,20.41
2023-07-27T16:19:30.632Z,20.39
2023-07-27T16:21:57.087Z,20.33
2023-07-27T16:24:23.538Z,20.36
2023-07-27T16:26:49.970Z,20.33
2023-07-27T16:29:16.393Z,20.33
2023-07-27T16:31:42.844Z,20.32
2023-07-27T16:34:09.277Z,20.31
2023-07-27T16:36:35.835Z,20.26
2023-07-27T16:39:02.486Z,20.24
2023-07-27T16:41:28.911Z,20.25
2023-07-27T16:43:55.329Z,20.24
2023-07-27T16:46:21.937Z,20.13
2023-07-27T16:48:48.736Z,20.19
2023-07-27T16:51:15.325Z,20.10
2023-07-27T16:53:41.761Z,20.06
2023-07-27T16:56:09.681Z,20.09
2023-07-27T16:58:36.778Z,20.13
2023-07-27T17:01:03.587Z,20.20
2023-07-27T17:03:31.324Z,20.16
2023-07-27T17:05:57.954Z,20.08
2023-07-27T17:08:25.357Z,20.08
2023-07-27T17:11:02.261Z,20.03
2023-07-27T17:13:28.804Z,19.98
2023-07-27T17:16:10.641Z,19.57
2023-07-27T17:18:39.562Z,19.86
2023-07-27T17:21:07.962Z,19.89
2023-07-27T17:23:35.228Z,19.79
2023-07-27T17:26:03.169Z,19.84
2023-07-27T17:28:31.408Z,19.88
2023-07-27T17:30:59.719Z,19.88
2023-07-27T17:33:26.975Z,19.88
2023-07-27T17:35:55.579Z,19.93
2023-07-27T17:38:24.919Z,19.93
2023-07-27T17:40:51.421Z,19.88
2023-07-27T17:43:17.956Z,19.88
2023-07-27T17:45:46.261Z,19.76
2023-07-27T17:48:17.633Z,19.83
2023-07-27T17:50:44.552Z,19.83
2023-07-27T17:53:11.161Z,19.79
2023-07-27T17:55:37.915Z,19.74
2023-07-27T17:58:08.730Z,19.67
2023-07-27T18:00:35.223Z,19.67
2023-07-27T18:03:01.718Z,19.79
2023-07-27T18:05:28.477Z,19.75
2023-07-27T18:07:59.111Z,19.60
2023-07-27T18:10:26.440Z,19.81
2023-07-27T18:12:53.146Z,19.86
2023-07-27T18:15:19.616Z,19.91
2023-07-27T18:17:46.093Z,19.91
2023-07-27T18:20:13.230Z,19.91
2023-07-27T18:22:41.139Z,19.84
2023-07-27T18:25:10.464Z,19.87
2023-07-27T18:27:36.889Z,19.87
2023-07-27T18:30:03.923Z,19.91
2023-07-27T18:32:30.433Z,19.91
2023-07-27T18:34:57.050Z,19.98
2023-07-27T18:37:23.472Z,20.04
2023-07-27T18:39:49.998Z,20.03
2023-07-27T18:42:16.444Z,20.08
2023-07-27T18:44:42.898Z,20.11
2023-07-27T18:47:09.460Z,20.05
2023-07-27T18:49:35.890Z,20.14
2023-07-27T18:52:02.403Z,20.20
2023-07-27T18:54:28.837Z,20.24
2023-07-27T18:56:55.271Z,20.30
2023-07-27T18:59:21.817Z,20.30
2023-07-27T19:01:48.781Z,20.37
2023-07-27T19:04:15.438Z,20.36
2023-07-27T19:06:42.109Z,20.33
2023-07-27T19:09:08.693Z,20.25
2023-07-27T19:11:35.545Z,20.26
2023-07-27T19:14:02.688Z,20.25
2023-07-27T19:16:29.099Z,20.29
2023-07-27T19:18:55.656Z,20.22
2023-07-27T19:21:22.103Z,20.18
2023-07-27T19:23:48.575Z,20.12
2023-07-27T19:26:19.981Z,20.07
2023-07-27T19:28:46.650Z,20.11
2023-07-27T19:31:21.239Z,20.09
2023-07-27T19:33:51.335Z,20.08
2023-07-27T19:36:22.068Z,20.12
2023-07-27T19:38:49.045Z,20.13
2023-07-27T19:41:17.101Z,20.16
2023-07-27T19:43:44.180Z,19.84
2023-07-27T19:46:11.285Z,20.07
2023-07-27T19:48:38.732Z,20.07
2023-07-27T19:51:05.985Z,20.05
2023-07-27T19:53:32.640Z,20.04
2023-07-27T19:56:06.192Z,20.11
2023-07-27T19:58:33.441Z,20.07
2023-07-27T20:01:01.076Z,20.01
2023-07-27T20:03:28.675Z,20.00
2023-07-27T20:05:56.187Z,20.04
2023-07-27T20:08:35.940Z,19.96
2023-07-27T20:11:10.082Z,20.05
2023-07-27T20:13:36.541Z,19.98
2023-07-27T20:16:03.144Z,20.08
2023-07-27T20:18:29.585Z,19.99
2023-07-27T20:20:56.098Z,19.94
2023-07-27T20:23:22.680Z,20.00
2023-07-27T20:25:49.123Z,19.94
2023-07-27T20:28:15.688Z,19.78
2023-07-27T20:30:42.160Z,19.82
2023-07-27T20:33:08.695Z,19.88
2023-07-27T20:35:35.139Z,19.82
2023-07-27T20:38:01.675Z,19.63
2023-07-27T20:40:28.249Z,19.66
2023-07-27T20:42:54.721Z,19.58
2023-07-27T20:45:21.318Z,19.62
2023-07-27T20:47:47.925Z,19.50
2023-07-27T20:50:17.338Z,19.43
2023-07-27T20:52:44.295Z,19.48
2023-07-27T20:55:10.909Z,19.40
2023-07-27T20:57:37.401Z,19.32
2023-07-27T21:00:05.751Z,19.34
2023-07-27T21:02:32.469Z,19.31
2023-07-27T21:04:58.947Z,19.37
2023-07-27T21:07:26.891Z,19.40
2023-07-27T21:09:57.110Z,19.38
2023-07-27T21:12:23.722Z,19.34
2023-07-27T21:14:50.161Z,19.38
2023-07-27T21:17:16.590Z,19.19
2023-07-27T21:19:43.026Z,19.36
2023-07-27T21:22:09.475Z,19.35
2023-07-27T21:24:35.946Z,19.33
2023-07-27T21:27:02.867Z,19.18
2023-07-27T21:29:29.372Z,19.25
2023-07-27T21:31:55.960Z,19.31
2023-07-27T21:34:25.633Z,19.29
2023-07-27T21:36:52.924Z,19.27
2023-07-27T21:39:19.620Z,19.32
2023-07-27T21:41:46.810Z,19.29
2023-07-27T21:44:13.382Z,19.33
2023-07-27T21:46:39.817Z,19.33
2023-07-27T21:49:06.245Z,19.18
2023-07-27T21:51:32.795Z,19.27
2023-07-27T21:53:59.241Z,19.24
2023-07-27T21:56:25.646Z,19.18
2023-07-27T21:58:52.090Z,19.19
2023-07-27T22:01:18.558Z,19.12
2023-07-27T22:03:45.065Z,19.20
2023-07-27T22:06:11.523Z,19.13
2023-07-27T22:08:37.953Z,19.23
2023-07-27T22:11:04.385Z,19.17
2023-07-27T22:13:30.822Z,19.25
2023-07-27T22:15:57.725Z,19.26
2023-07-27T22:18:24.382Z,19.26
2023-07-27T22:20:50.867Z,19.30
2023-07-27T22:23:17.376Z,19.23
2023-07-27T22:25:45.098Z,19.31
2023-07-27T22:28:12.536Z,19.16
2023-07-27T22:30:49.023Z,19.25
2023-07-27T22:33:16.274Z,19.16
2023-07-27T22:35:44.966Z,19.23
2023-07-27T22:38:12.271Z,19.29
2023-07-27T22:40:48.379Z,19.23
2023-07-27T22:43:14.833Z,19.19
2023-07-27T22:45:41.250Z,19.26
2023-07-27T22:48:07.696Z,19.16
2023-07-27T22:50:34.147Z,19.23
2023-07-27T22:53:00.565Z,19.27
2023-07-27T22:55:27.014Z,19.26
2023-07-27T22:57:53.448Z,19.27
2023-07-27T23:00:19.999Z,19.08
2023-07-27T23:02:46.470Z,19.19
2023-07-27T23:05:13.016Z,19.24
2023-07-27T23:07:39.509Z,19.25
2023-07-27T23:10:06.357Z,19.27
2023-07-27T23:12:32.839Z,19.29
2023-07-27T23:14:59.264Z,19.26
2023-07-27T23:17:25.710Z,19.27
2023-07-27T23:19:52.200Z,19.13
2023-07-27T23:22:18.642Z,19.28
2023-07-27T23:24:45.201Z,19.29
2023-07-27T23:27:11.615Z,19.22
2023-07-27T23:29:38.039Z,19.30
2023-07-27T23:32:04.948Z,19.25
2023-07-27T23:34:31.398Z,19.23
2023-07-27T23:36:59.545Z,19.24
2023-07-27T23:39:26.125Z,19.21
2023-07-27T23:41:52.571Z,19.21
2023-07-27T23:44:19.103Z,19.19
2023-07-27T23:46:45.582Z,19.20
2023-07-27T23:49:12.155Z,19.19
2023-07-27T23:51:38.660Z,19.13
2023-07-27T23:54:05.178Z,19.15
2023-07-27T23:56:31.699Z,19.15
2023-07-27T23:59:01.446Z,19.09
